sensor_id;sensor_type;location;lat;lon;timestamp;P1;durP1;ratioP1;P2;durP2;ratioP2
1294;SDS011;640;48.310;11.728;2022-10-31T00:00:47;13.35;;;6.72;;
1294;SDS011;640;48.310;11.728;2022-10-31T00:03:18;14.00;;;6.53;;
1294;SDS011;640;48.310;11.728;2022-10-31T00:05:47;14.18;;;6.35;;
1294;SDS011;640;48.310;11.728;2022-10-31T00:08:16;12.83;;;6.70;;
1294;SDS011;640;48.310;11.728;2022-10-31T00:10:45;8.85;;;5.28;;
1294;SDS011;640;48.310;11.728;2022-10-31T00:13:14;8.90;;;5.55;;
1294;SDS011;640;48.310;11.728;2022-10-31T00:15:43;13.65;;;6.05;;
1294;SDS011;640;48.310;11.728;2022-10-31T00:18:11;9.35;;;5.90;;
1294;SDS011;640;48.310;11.728;2022-10-31T00:20:41;13.90;;;5.65;;
1294;SDS011;640;48.310;11.728;2022-10-31T00:23:09;8.33;;;5.70;;
1294;SDS011;640;48.310;11.728;2022-10-31T00:25:39;9.65;;;5.43;;
1294;SDS011;640;48.310;11.728;2022-10-31T00:28:08;18.17;;;6.28;;
1294;SDS011;640;48.310;11.728;2022-10-31T00:30:38;9.63;;;5.65;;
1294;SDS011;640;48.310;11.728;2022-10-31T00:33:06;13.20;;;6.07;;
1294;SDS011;640;48.310;11.728;2022-10-31T00:35:34;13.15;;;6.40;;
1294;SDS011;640;48.310;11.728;2022-10-31T00:38:04;12.55;;;6.35;;
1294;SDS011;640;48.310;11.728;2022-10-31T00:40:32;12.33;;;6.30;;
1294;SDS011;640;48.310;11.728;2022-10-31T00:43:01;12.77;;;6.05;;
1294;SDS011;640;48.310;11.728;2022-10-31T00:45:30;9.55;;;5.43;;
1294;SDS011;640;48.310;11.728;2022-10-31T00:47:58;14.48;;;7.15;;
1294;SDS011;640;48.310;11.728;2022-10-31T00:50:27;9.05;;;6.18;;
1294;SDS011;640;48.310;11.728;2022-10-31T00:52:56;10.52;;;6.70;;
1294;SDS011;640;48.310;11.728;2022-10-31T00:55:26;13.25;;;6.93;;
1294;SDS011;640;48.310;11.728;2022-10-31T00:57:55;15.50;;;7.47;;
1294;SDS011;640;48.310;11.728;2022-10-31T01:00:24;12.82;;;6.88;;
1294;SDS011;640;48.310;11.728;2022-10-31T01:02:52;12.27;;;6.45;;
1294;SDS011;640;48.310;11.728;2022-10-31T01:05:21;16.65;;;7.68;;
1294;SDS011;640;48.310;11.728;2022-10-31T01:07:49;13.77;;;7.38;;
1294;SDS011;640;48.310;11.728;2022-10-31T01:10:18;20.33;;;7.35;;
1294;SDS011;640;48.310;11.728;2022-10-31T01:12:48;16.05;;;6.80;;
1294;SDS011;640;48.310;11.728;2022-10-31T01:15:18;16.88;;;6.78;;
1294;SDS011;640;48.310;11.728;2022-10-31T01:17:48;12.95;;;6.95;;
1294;SDS011;640;48.310;11.728;2022-10-31T01:20:17;12.85;;;6.78;;
1294;SDS011;640;48.310;11.728;2022-10-31T01:22:46;34.45;;;8.00;;
1294;SDS011;640;48.310;11.728;2022-10-31T01:25:14;42.78;;;8.68;;
1294;SDS011;640;48.310;11.728;2022-10-31T01:27:43;90.95;;;9.77;;
1294;SDS011;640;48.310;11.728;2022-10-31T01:30:13;24.60;;;8.57;;
1294;SDS011;640;48.310;11.728;2022-10-31T01:32:41;23.60;;;8.23;;
1294;SDS011;640;48.310;11.728;2022-10-31T01:35:09;15.88;;;7.63;;
1294;SDS011;640;48.310;11.728;2022-10-31T01:37:38;15.38;;;8.55;;
1294;SDS011;640;48.310;11.728;2022-10-31T01:40:06;16.17;;;8.07;;
1294;SDS011;640;48.310;11.728;2022-10-31T01:42:36;11.70;;;7.40;;
1294;SDS011;640;48.310;11.728;2022-10-31T01:45:05;12.68;;;7.60;;
1294;SDS011;640;48.310;11.728;2022-10-31T01:47:39;12.38;;;7.57;;
1294;SDS011;640;48.310;11.728;2022-10-31T01:50:11;12.82;;;7.43;;
1294;SDS011;640;48.310;11.728;2022-10-31T01:52:43;15.82;;;8.00;;
1294;SDS011;640;48.310;11.728;2022-10-31T01:55:13;12.40;;;7.20;;
1294;SDS011;640;48.310;11.728;2022-10-31T01:57:44;16.00;;;7.55;;
1294;SDS011;640;48.310;11.728;2022-10-31T02:00:23;12.85;;;6.78;;
1294;SDS011;640;48.310;11.728;2022-10-31T02:02:53;10.50;;;7.03;;
1294;SDS011;640;48.310;11.728;2022-10-31T02:05:23;14.77;;;7.07;;
1294;SDS011;640;48.310;11.728;2022-10-31T02:07:55;12.68;;;6.95;;
1294;SDS011;640;48.310;11.728;2022-10-31T02:10:25;10.88;;;6.78;;
1294;SDS011;640;48.310;11.728;2022-10-31T02:12:55;15.77;;;7.95;;
1294;SDS011;640;48.310;11.728;2022-10-31T02:15:25;21.80;;;8.40;;
1294;SDS011;640;48.310;11.728;2022-10-31T02:17:55;15.57;;;7.45;;
1294;SDS011;640;48.310;11.728;2022-10-31T02:20:25;29.42;;;8.93;;
1294;SDS011;640;48.310;11.728;2022-10-31T02:23:11;27.45;;;8.70;;
1294;SDS011;640;48.310;11.728;2022-10-31T02:32:08;16.98;;;8.02;;
1294;SDS011;640;48.310;11.728;2022-10-31T02:34:40;14.00;;;7.82;;
1294;SDS011;640;48.310;11.728;2022-10-31T02:37:12;16.00;;;7.63;;
1294;SDS011;640;48.310;11.728;2022-10-31T02:39:44;15.55;;;8.32;;
1294;SDS011;640;48.310;11.728;2022-10-31T02:42:16;18.48;;;8.57;;
1294;SDS011;640;48.310;11.728;2022-10-31T02:44:49;14.50;;;7.85;;
1294;SDS011;640;48.310;11.728;2022-10-31T02:47:24;12.73;;;7.25;;
1294;SDS011;640;48.310;11.728;2022-10-31T02:49:56;14.27;;;7.22;;
1294;SDS011;640;48.310;11.728;2022-10-31T02:52:26;13.82;;;7.30;;
1294;SDS011;640;48.310;11.728;2022-10-31T02:54:55;12.90;;;7.30;;
1294;SDS011;640;48.310;11.728;2022-10-31T02:57:24;23.42;;;9.68;;
1294;SDS011;640;48.310;11.728;2022-10-31T02:59:55;15.05;;;8.30;;
1294;SDS011;640;48.310;11.728;2022-10-31T03:07:53;14.77;;;7.65;;
1294;SDS011;640;48.310;11.728;2022-10-31T03:10:27;13.02;;;7.78;;
1294;SDS011;640;48.310;11.728;2022-10-31T03:13:05;14.45;;;8.20;;
1294;SDS011;640;48.310;11.728;2022-10-31T03:15:37;18.05;;;8.05;;
1294;SDS011;640;48.310;11.728;2022-10-31T03:18:09;17.50;;;8.57;;
1294;SDS011;640;48.310;11.728;2022-10-31T03:20:40;16.88;;;8.90;;
1294;SDS011;640;48.310;11.728;2022-10-31T03:23:11;12.13;;;8.18;;
1294;SDS011;640;48.310;11.728;2022-10-31T03:25:41;16.77;;;8.10;;
1294;SDS011;640;48.310;11.728;2022-10-31T03:28:11;15.70;;;8.53;;
1294;SDS011;640;48.310;11.728;2022-10-31T03:30:41;12.35;;;7.75;;
1294;SDS011;640;48.310;11.728;2022-10-31T03:33:13;13.45;;;8.07;;
1294;SDS011;640;48.310;11.728;2022-10-31T03:35:44;15.70;;;7.85;;
1294;SDS011;640;48.310;11.728;2022-10-31T03:38:14;11.48;;;7.43;;
1294;SDS011;640;48.310;11.728;2022-10-31T03:40:43;12.48;;;7.00;;
1294;SDS011;640;48.310;11.728;2022-10-31T03:43:15;9.30;;;6.63;;
1294;SDS011;640;48.310;11.728;2022-10-31T03:45:46;9.90;;;7.32;;
1294;SDS011;640;48.310;11.728;2022-10-31T03:48:17;11.98;;;6.90;;
1294;SDS011;640;48.310;11.728;2022-10-31T03:50:47;11.77;;;6.60;;
1294;SDS011;640;48.310;11.728;2022-10-31T03:53:20;10.02;;;7.45;;
1294;SDS011;640;48.310;11.728;2022-10-31T03:55:52;11.27;;;7.15;;
1294;SDS011;640;48.310;11.728;2022-10-31T03:58:24;12.82;;;7.45;;
1294;SDS011;640;48.310;11.728;2022-10-31T04:00:55;9.40;;;6.30;;
1294;SDS011;640;48.310;11.728;2022-10-31T04:03:27;8.40;;;6.47;;
1294;SDS011;640;48.310;11.728;2022-10-31T04:05:58;10.63;;;6.30;;
1294;SDS011;640;48.310;11.728;2022-10-31T04:08:29;11.32;;;7.05;;
1294;SDS011;640;48.310;11.728;2022-10-31T04:10:59;12.25;;;7.03;;
1294;SDS011;640;48.310;11.728;2022-10-31T04:13:29;17.15;;;7.13;;
1294;SDS011;640;48.310;11.728;2022-10-31T04:15:59;29.10;;;8.63;;
1294;SDS011;640;48.310;11.728;2022-10-31T04:18:29;62.90;;;9.60;;
1294;SDS011;640;48.310;11.728;2022-10-31T04:21:00;61.03;;;9.20;;
1294;SDS011;640;48.310;11.728;2022-10-31T04:23:29;53.67;;;8.05;;
1294;SDS011;640;48.310;11.728;2022-10-31T04:25:58;59.55;;;7.55;;
1294;SDS011;640;48.310;11.728;2022-10-31T04:28:26;62.55;;;6.88;;
1294;SDS011;640;48.310;11.728;2022-10-31T04:30:54;54.38;;;6.72;;
1294;SDS011;640;48.310;11.728;2022-10-31T04:33:23;36.55;;;6.28;;
1294;SDS011;640;48.310;11.728;2022-10-31T04:35:52;20.33;;;5.95;;
1294;SDS011;640;48.310;11.728;2022-10-31T04:38:21;7.47;;;5.60;;
1294;SDS011;640;48.310;11.728;2022-10-31T04:40:49;8.65;;;5.30;;
1294;SDS011;640;48.310;11.728;2022-10-31T04:43:17;9.85;;;5.20;;
1294;SDS011;640;48.310;11.728;2022-10-31T04:45:50;8.82;;;5.18;;
1294;SDS011;640;48.310;11.728;2022-10-31T04:48:19;8.60;;;5.63;;
1294;SDS011;640;48.310;11.728;2022-10-31T04:50:47;12.32;;;5.82;;
1294;SDS011;640;48.310;11.728;2022-10-31T04:53:17;8.60;;;5.32;;
1294;SDS011;640;48.310;11.728;2022-10-31T04:55:45;7.88;;;5.75;;
1294;SDS011;640;48.310;11.728;2022-10-31T04:58:13;10.23;;;6.20;;
1294;SDS011;640;48.310;11.728;2022-10-31T05:00:47;13.18;;;5.60;;
1294;SDS011;640;48.310;11.728;2022-10-31T05:03:15;11.70;;;5.75;;
1294;SDS011;640;48.310;11.728;2022-10-31T05:05:44;16.85;;;6.47;;
1294;SDS011;640;48.310;11.728;2022-10-31T05:08:12;16.95;;;6.05;;
1294;SDS011;640;48.310;11.728;2022-10-31T05:10:42;9.77;;;5.88;;
1294;SDS011;640;48.310;11.728;2022-10-31T05:13:10;12.77;;;5.82;;
1294;SDS011;640;48.310;11.728;2022-10-31T05:15:39;26.73;;;6.43;;
1294;SDS011;640;48.310;11.728;2022-10-31T05:18:07;26.33;;;6.80;;
1294;SDS011;640;48.310;11.728;2022-10-31T05:20:35;23.65;;;6.38;;
1294;SDS011;640;48.310;11.728;2022-10-31T05:23:03;12.55;;;5.45;;
1294;SDS011;640;48.310;11.728;2022-10-31T05:25:32;7.30;;;4.90;;
1294;SDS011;640;48.310;11.728;2022-10-31T05:28:01;7.35;;;5.40;;
1294;SDS011;640;48.310;11.728;2022-10-31T05:30:30;10.05;;;5.13;;
1294;SDS011;640;48.310;11.728;2022-10-31T05:32:59;8.07;;;4.82;;
1294;SDS011;640;48.310;11.728;2022-10-31T05:35:29;8.27;;;5.22;;
1294;SDS011;640;48.310;11.728;2022-10-31T05:37:58;7.17;;;5.20;;
1294;SDS011;640;48.310;11.728;2022-10-31T05:40:27;7.82;;;5.20;;
1294;SDS011;640;48.310;11.728;2022-10-31T05:42:56;7.43;;;4.55;;
1294;SDS011;640;48.310;11.728;2022-10-31T05:45:27;9.77;;;4.65;;
1294;SDS011;640;48.310;11.728;2022-10-31T05:47:57;6.15;;;4.50;;
1294;SDS011;640;48.310;11.728;2022-10-31T05:50:27;5.57;;;4.38;;
1294;SDS011;640;48.310;11.728;2022-10-31T05:52:58;8.35;;;4.57;;
1294;SDS011;640;48.310;11.728;2022-10-31T05:55:28;6.57;;;4.75;;
1294;SDS011;640;48.310;11.728;2022-10-31T05:57:57;6.18;;;4.63;;
1294;SDS011;640;48.310;11.728;2022-10-31T06:00:27;8.02;;;4.90;;
1294;SDS011;640;48.310;11.728;2022-10-31T06:02:59;7.40;;;5.00;;
1294;SDS011;640;48.310;11.728;2022-10-31T06:05:28;7.68;;;5.00;;
1294;SDS011;640;48.310;11.728;2022-10-31T06:07:57;6.72;;;4.38;;
1294;SDS011;640;48.310;11.728;2022-10-31T06:10:26;7.32;;;5.15;;
1294;SDS011;640;48.310;11.728;2022-10-31T06:12:55;8.40;;;4.90;;
1294;SDS011;640;48.310;11.728;2022-10-31T06:15:23;9.02;;;5.28;;
1294;SDS011;640;48.310;11.728;2022-10-31T06:18:02;9.52;;;5.25;;
1294;SDS011;640;48.310;11.728;2022-10-31T06:20:32;7.38;;;4.88;;
1294;SDS011;640;48.310;11.728;2022-10-31T06:23:01;6.55;;;4.72;;
1294;SDS011;640;48.310;11.728;2022-10-31T06:25:30;6.72;;;4.32;;
1294;SDS011;640;48.310;11.728;2022-10-31T06:27:59;6.22;;;4.40;;
1294;SDS011;640;48.310;11.728;2022-10-31T06:30:27;5.28;;;4.28;;
1294;SDS011;640;48.310;11.728;2022-10-31T06:33:02;8.70;;;4.75;;
1294;SDS011;640;48.310;11.728;2022-10-31T06:35:31;6.85;;;5.10;;
1294;SDS011;640;48.310;11.728;2022-10-31T06:37:59;6.03;;;3.70;;
1294;SDS011;640;48.310;11.728;2022-10-31T06:40:28;6.85;;;4.03;;
1294;SDS011;640;48.310;11.728;2022-10-31T06:42:57;5.28;;;3.85;;
1294;SDS011;640;48.310;11.728;2022-10-31T06:45:26;6.78;;;4.07;;
1294;SDS011;640;48.310;11.728;2022-10-31T06:47:55;5.65;;;4.00;;
1294;SDS011;640;48.310;11.728;2022-10-31T06:50:45;7.30;;;4.30;;
1294;SDS011;640;48.310;11.728;2022-10-31T06:53:13;7.13;;;4.47;;
1294;SDS011;640;48.310;11.728;2022-10-31T06:55:42;6.45;;;4.22;;
1294;SDS011;640;48.310;11.728;2022-10-31T06:58:10;5.63;;;4.05;;
1294;SDS011;640;48.310;11.728;2022-10-31T07:00:39;8.85;;;4.57;;
1294;SDS011;640;48.310;11.728;2022-10-31T07:03:09;4.80;;;4.00;;
1294;SDS011;640;48.310;11.728;2022-10-31T07:05:39;6.95;;;4.13;;
1294;SDS011;640;48.310;11.728;2022-10-31T07:08:10;10.05;;;4.30;;
1294;SDS011;640;48.310;11.728;2022-10-31T07:10:40;10.68;;;5.80;;
1294;SDS011;640;48.310;11.728;2022-10-31T07:13:10;11.40;;;5.18;;
1294;SDS011;640;48.310;11.728;2022-10-31T07:15:40;10.45;;;5.13;;
1294;SDS011;640;48.310;11.728;2022-10-31T07:18:10;8.20;;;5.25;;
1294;SDS011;640;48.310;11.728;2022-10-31T07:20:39;9.85;;;4.85;;
1294;SDS011;640;48.310;11.728;2022-10-31T07:23:09;5.90;;;4.50;;
1294;SDS011;640;48.310;11.728;2022-10-31T07:25:37;6.68;;;4.50;;
1294;SDS011;640;48.310;11.728;2022-10-31T07:28:06;6.18;;;4.25;;
1294;SDS011;640;48.310;11.728;2022-10-31T07:30:35;5.63;;;3.60;;
1294;SDS011;640;48.310;11.728;2022-10-31T07:33:04;7.43;;;4.40;;
1294;SDS011;640;48.310;11.728;2022-10-31T07:35:32;5.95;;;3.92;;
1294;SDS011;640;48.310;11.728;2022-10-31T07:38:06;6.07;;;3.90;;
1294;SDS011;640;48.310;11.728;2022-10-31T07:40:37;7.60;;;4.35;;
1294;SDS011;640;48.310;11.728;2022-10-31T07:43:05;10.23;;;4.32;;
1294;SDS011;640;48.310;11.728;2022-10-31T07:45:38;8.38;;;5.50;;
1294;SDS011;640;48.310;11.728;2022-10-31T07:48:07;12.13;;;5.93;;
1294;SDS011;640;48.310;11.728;2022-10-31T07:50:35;11.15;;;6.18;;
1294;SDS011;640;48.310;11.728;2022-10-31T07:53:04;14.40;;;6.50;;
1294;SDS011;640;48.310;11.728;2022-10-31T07:55:34;14.90;;;6.00;;
1294;SDS011;640;48.310;11.728;2022-10-31T07:58:03;12.75;;;5.70;;
1294;SDS011;640;48.310;11.728;2022-10-31T08:00:33;12.10;;;5.83;;
1294;SDS011;640;48.310;11.728;2022-10-31T08:03:03;11.63;;;5.70;;
1294;SDS011;640;48.310;11.728;2022-10-31T08:05:33;12.73;;;5.38;;
1294;SDS011;640;48.310;11.728;2022-10-31T08:08:01;14.20;;;6.75;;
1294;SDS011;640;48.310;11.728;2022-10-31T08:10:30;15.18;;;6.00;;
1294;SDS011;640;48.310;11.728;2022-10-31T08:13:01;12.07;;;5.20;;
1294;SDS011;640;48.310;11.728;2022-10-31T08:15:31;9.15;;;5.35;;
1294;SDS011;640;48.310;11.728;2022-10-31T08:18:00;11.13;;;5.35;;
1294;SDS011;640;48.310;11.728;2022-10-31T08:20:29;9.05;;;5.38;;
1294;SDS011;640;48.310;11.728;2022-10-31T08:22:58;16.20;;;5.25;;
1294;SDS011;640;48.310;11.728;2022-10-31T08:25:28;10.87;;;4.93;;
1294;SDS011;640;48.310;11.728;2022-10-31T08:28:05;13.27;;;4.60;;
1294;SDS011;640;48.310;11.728;2022-10-31T08:30:34;12.02;;;5.13;;
1294;SDS011;640;48.310;11.728;2022-10-31T08:33:05;10.60;;;4.95;;
1294;SDS011;640;48.310;11.728;2022-10-31T08:35:34;12.73;;;5.30;;
1294;SDS011;640;48.310;11.728;2022-10-31T08:38:02;13.55;;;5.18;;
1294;SDS011;640;48.310;11.728;2022-10-31T08:40:31;11.15;;;5.55;;
1294;SDS011;640;48.310;11.728;2022-10-31T08:43:02;14.48;;;6.30;;
1294;SDS011;640;48.310;11.728;2022-10-31T08:45:33;16.92;;;6.15;;
1294;SDS011;640;48.310;11.728;2022-10-31T08:48:02;15.45;;;5.70;;
1294;SDS011;640;48.310;11.728;2022-10-31T08:50:33;15.80;;;6.13;;
1294;SDS011;640;48.310;11.728;2022-10-31T08:55:33;17.35;;;6.25;;
1294;SDS011;640;48.310;11.728;2022-10-31T08:58:02;14.95;;;6.90;;
1294;SDS011;640;48.310;11.728;2022-10-31T09:00:32;13.85;;;6.53;;
1294;SDS011;640;48.310;11.728;2022-10-31T09:03:03;15.10;;;7.18;;
1294;SDS011;640;48.310;11.728;2022-10-31T09:08:01;14.65;;;7.55;;
1294;SDS011;640;48.310;11.728;2022-10-31T09:10:31;13.07;;;7.18;;
1294;SDS011;640;48.310;11.728;2022-10-31T09:13:01;14.73;;;7.55;;
1294;SDS011;640;48.310;11.728;2022-10-31T09:15:35;17.88;;;7.95;;
1294;SDS011;640;48.310;11.728;2022-10-31T09:18:05;15.43;;;7.57;;
1294;SDS011;640;48.310;11.728;2022-10-31T09:20:34;15.00;;;7.65;;
1294;SDS011;640;48.310;11.728;2022-10-31T09:23:03;15.37;;;7.33;;
1294;SDS011;640;48.310;11.728;2022-10-31T09:25:32;17.80;;;7.35;;
1294;SDS011;640;48.310;11.728;2022-10-31T09:28:02;13.13;;;7.05;;
1294;SDS011;640;48.310;11.728;2022-10-31T09:30:32;17.48;;;7.85;;
1294;SDS011;640;48.310;11.728;2022-10-31T09:33:04;13.70;;;6.88;;
1294;SDS011;640;48.310;11.728;2022-10-31T09:35:33;16.40;;;7.47;;
1294;SDS011;640;48.310;11.728;2022-10-31T09:38:03;16.10;;;7.55;;
1294;SDS011;640;48.310;11.728;2022-10-31T09:40:33;12.98;;;6.85;;
1294;SDS011;640;48.310;11.728;2022-10-31T09:43:05;15.10;;;7.18;;
1294;SDS011;640;48.310;11.728;2022-10-31T09:45:43;16.92;;;7.35;;
1294;SDS011;640;48.310;11.728;2022-10-31T09:48:20;13.60;;;6.90;;
1294;SDS011;640;48.310;11.728;2022-10-31T09:50:56;10.13;;;6.75;;
1294;SDS011;640;48.310;11.728;2022-10-31T09:53:27;16.33;;;6.90;;
1294;SDS011;640;48.310;11.728;2022-10-31T09:55:59;17.35;;;7.35;;
1294;SDS011;640;48.310;11.728;2022-10-31T09:58:28;15.63;;;6.57;;
1294;SDS011;640;48.310;11.728;2022-10-31T10:01:02;17.13;;;6.55;;
1294;SDS011;640;48.310;11.728;2022-10-31T10:03:35;13.38;;;6.38;;
1294;SDS011;640;48.310;11.728;2022-10-31T10:06:09;14.70;;;6.50;;
1294;SDS011;640;48.310;11.728;2022-10-31T10:08:42;16.73;;;6.90;;
1294;SDS011;640;48.310;11.728;2022-10-31T10:11:17;12.25;;;6.60;;
1294;SDS011;640;48.310;11.728;2022-10-31T10:14:03;15.73;;;6.80;;
1294;SDS011;640;48.310;11.728;2022-10-31T10:16:43;18.20;;;6.80;;
1294;SDS011;640;48.310;11.728;2022-10-31T10:19:21;14.02;;;6.50;;
1294;SDS011;640;48.310;11.728;2022-10-31T10:21:59;13.65;;;6.78;;
1294;SDS011;640;48.310;11.728;2022-10-31T10:24:34;15.80;;;6.30;;
1294;SDS011;640;48.310;11.728;2022-10-31T10:27:25;13.30;;;6.75;;
1294;SDS011;640;48.310;11.728;2022-10-31T10:30:04;21.23;;;7.10;;
1294;SDS011;640;48.310;11.728;2022-10-31T10:32:40;17.38;;;6.95;;
1294;SDS011;640;48.310;11.728;2022-10-31T10:35:21;14.63;;;5.75;;
1294;SDS011;640;48.310;11.728;2022-10-31T10:37:52;17.58;;;7.05;;
1294;SDS011;640;48.310;11.728;2022-10-31T10:40:25;11.38;;;5.93;;
1294;SDS011;640;48.310;11.728;2022-10-31T10:45:41;13.25;;;6.30;;
1294;SDS011;640;48.310;11.728;2022-10-31T10:48:38;11.65;;;6.63;;
1294;SDS011;640;48.310;11.728;2022-10-31T10:51:18;13.23;;;6.60;;
1294;SDS011;640;48.310;11.728;2022-10-31T10:54:12;15.95;;;7.03;;
1294;SDS011;640;48.310;11.728;2022-10-31T10:56:49;18.95;;;6.60;;
1294;SDS011;640;48.310;11.728;2022-10-31T10:59:22;14.05;;;6.57;;
1294;SDS011;640;48.310;11.728;2022-10-31T11:01:51;17.08;;;6.13;;
1294;SDS011;640;48.310;11.728;2022-10-31T11:04:31;13.60;;;6.13;;
1294;SDS011;640;48.310;11.728;2022-10-31T11:07:02;13.95;;;7.15;;
1294;SDS011;640;48.310;11.728;2022-10-31T11:09:32;11.18;;;6.57;;
1294;SDS011;640;48.310;11.728;2022-10-31T11:12:05;14.82;;;7.20;;
1294;SDS011;640;48.310;11.728;2022-10-31T11:14:36;16.75;;;7.47;;
1294;SDS011;640;48.310;11.728;2022-10-31T11:17:15;13.27;;;7.25;;
1294;SDS011;640;48.310;11.728;2022-10-31T11:19:48;12.40;;;6.65;;
1294;SDS011;640;48.310;11.728;2022-10-31T11:22:29;12.98;;;7.03;;
1294;SDS011;640;48.310;11.728;2022-10-31T11:24:58;13.20;;;7.20;;
1294;SDS011;640;48.310;11.728;2022-10-31T11:27:26;13.23;;;7.00;;
1294;SDS011;640;48.310;11.728;2022-10-31T11:30:03;19.27;;;7.32;;
1294;SDS011;640;48.310;11.728;2022-10-31T11:32:32;17.42;;;7.35;;
1294;SDS011;640;48.310;11.728;2022-10-31T11:35:02;16.52;;;7.45;;
1294;SDS011;640;48.310;11.728;2022-10-31T11:37:40;12.20;;;7.13;;
1294;SDS011;640;48.310;11.728;2022-10-31T11:40:15;19.42;;;7.45;;
1294;SDS011;640;48.310;11.728;2022-10-31T11:42:45;11.75;;;7.65;;
1294;SDS011;640;48.310;11.728;2022-10-31T11:45:14;17.60;;;8.32;;
1294;SDS011;640;48.310;11.728;2022-10-31T11:47:46;13.10;;;7.07;;
1294;SDS011;640;48.310;11.728;2022-10-31T11:50:22;15.40;;;6.95;;
1294;SDS011;640;48.310;11.728;2022-10-31T11:52:54;16.30;;;8.05;;
1294;SDS011;640;48.310;11.728;2022-10-31T11:55:29;13.45;;;7.32;;
1294;SDS011;640;48.310;11.728;2022-10-31T11:57:59;13.88;;;7.72;;
1294;SDS011;640;48.310;11.728;2022-10-31T12:00:29;17.95;;;8.18;;
1294;SDS011;640;48.310;11.728;2022-10-31T12:03:09;12.80;;;7.68;;
1294;SDS011;640;48.310;11.728;2022-10-31T12:08:08;17.58;;;8.93;;
1294;SDS011;640;48.310;11.728;2022-10-31T12:10:44;18.30;;;8.02;;
1294;SDS011;640;48.310;11.728;2022-10-31T12:13:22;15.40;;;7.47;;
1294;SDS011;640;48.310;11.728;2022-10-31T12:16:00;12.68;;;6.93;;
1294;SDS011;640;48.310;11.728;2022-10-31T12:18:43;15.48;;;7.57;;
1294;SDS011;640;48.310;11.728;2022-10-31T12:21:21;18.40;;;7.75;;
1294;SDS011;640;48.310;11.728;2022-10-31T12:24:00;17.42;;;8.02;;
1294;SDS011;640;48.310;11.728;2022-10-31T12:26:36;15.93;;;7.70;;
1294;SDS011;640;48.310;11.728;2022-10-31T12:29:12;15.43;;;8.18;;
1294;SDS011;640;48.310;11.728;2022-10-31T12:31:52;14.32;;;7.70;;
1294;SDS011;640;48.310;11.728;2022-10-31T12:37:26;15.98;;;8.40;;
1294;SDS011;640;48.310;11.728;2022-10-31T12:40:04;17.15;;;9.25;;
1294;SDS011;640;48.310;11.728;2022-10-31T12:42:46;19.67;;;9.30;;
1294;SDS011;640;48.310;11.728;2022-10-31T12:45:27;16.95;;;9.80;;
1294;SDS011;640;48.310;11.728;2022-10-31T12:48:06;19.88;;;10.90;;
1294;SDS011;640;48.310;11.728;2022-10-31T12:50:49;18.95;;;10.02;;
1294;SDS011;640;48.310;11.728;2022-10-31T12:53:25;19.17;;;11.25;;
1294;SDS011;640;48.310;11.728;2022-10-31T12:56:05;26.45;;;11.80;;
1294;SDS011;640;48.310;11.728;2022-10-31T12:58:47;19.75;;;10.98;;
1294;SDS011;640;48.310;11.728;2022-10-31T13:01:20;18.52;;;10.52;;
1294;SDS011;640;48.310;11.728;2022-10-31T13:03:52;23.63;;;10.98;;
1294;SDS011;640;48.310;11.728;2022-10-31T13:06:27;18.08;;;11.55;;
1294;SDS011;640;48.310;11.728;2022-10-31T13:08:59;24.05;;;10.95;;
1294;SDS011;640;48.310;11.728;2022-10-31T13:11:32;21.15;;;11.23;;
1294;SDS011;640;48.310;11.728;2022-10-31T13:14:17;18.48;;;11.55;;
1294;SDS011;640;48.310;11.728;2022-10-31T13:16:50;19.30;;;11.77;;
1294;SDS011;640;48.310;11.728;2022-10-31T13:19:19;21.55;;;12.48;;
1294;SDS011;640;48.310;11.728;2022-10-31T13:21:52;20.00;;;11.57;;
1294;SDS011;640;48.310;11.728;2022-10-31T13:24:23;21.95;;;11.68;;
1294;SDS011;640;48.310;11.728;2022-10-31T13:26:58;20.55;;;11.27;;
1294;SDS011;640;48.310;11.728;2022-10-31T13:29:28;20.30;;;11.05;;
1294;SDS011;640;48.310;11.728;2022-10-31T13:31:59;19.60;;;11.75;;
1294;SDS011;640;48.310;11.728;2022-10-31T13:34:29;20.60;;;11.20;;
1294;SDS011;640;48.310;11.728;2022-10-31T13:37:01;15.50;;;10.23;;
1294;SDS011;640;48.310;11.728;2022-10-31T13:39:39;18.83;;;10.60;;
1294;SDS011;640;48.310;11.728;2022-10-31T13:44:46;17.08;;;10.43;;
1294;SDS011;640;48.310;11.728;2022-10-31T13:47:20;16.45;;;10.90;;
1294;SDS011;640;48.310;11.728;2022-10-31T13:49:50;16.63;;;9.88;;
1294;SDS011;640;48.310;11.728;2022-10-31T13:52:22;19.63;;;11.00;;
1294;SDS011;640;48.310;11.728;2022-10-31T13:54:52;16.38;;;10.63;;
1294;SDS011;640;48.310;11.728;2022-10-31T13:57:27;16.60;;;10.73;;
1294;SDS011;640;48.310;11.728;2022-10-31T14:00:02;15.48;;;10.63;;
1294;SDS011;640;48.310;11.728;2022-10-31T14:02:33;16.85;;;11.27;;
1294;SDS011;640;48.310;11.728;2022-10-31T14:05:03;21.25;;;10.90;;
1294;SDS011;640;48.310;11.728;2022-10-31T14:07:41;22.25;;;11.30;;
1294;SDS011;640;48.310;11.728;2022-10-31T14:10:20;21.20;;;11.27;;
1294;SDS011;640;48.310;11.728;2022-10-31T14:12:52;21.27;;;11.57;;
1294;SDS011;640;48.310;11.728;2022-10-31T14:15:22;22.13;;;11.35;;
1294;SDS011;640;48.310;11.728;2022-10-31T14:26:19;20.13;;;11.75;;
1294;SDS011;640;48.310;11.728;2022-10-31T14:31:55;19.42;;;10.75;;
1294;SDS011;640;48.310;11.728;2022-10-31T14:34:27;17.85;;;10.63;;
1294;SDS011;640;48.310;11.728;2022-10-31T14:37:11;17.65;;;10.75;;
1294;SDS011;640;48.310;11.728;2022-10-31T14:40:14;19.52;;;10.55;;
1294;SDS011;640;48.310;11.728;2022-10-31T14:45:47;22.35;;;12.32;;
1294;SDS011;640;48.310;11.728;2022-10-31T14:48:24;19.67;;;11.57;;
1294;SDS011;640;48.310;11.728;2022-10-31T14:51:01;23.85;;;11.05;;
1294;SDS011;640;48.310;11.728;2022-10-31T14:53:30;20.80;;;10.45;;
1294;SDS011;640;48.310;11.728;2022-10-31T14:56:19;18.63;;;11.57;;
1294;SDS011;640;48.310;11.728;2022-10-31T14:58:49;18.67;;;11.57;;
1294;SDS011;640;48.310;11.728;2022-10-31T15:01:21;19.48;;;11.75;;
1294;SDS011;640;48.310;11.728;2022-10-31T15:03:51;20.95;;;12.30;;
1294;SDS011;640;48.310;11.728;2022-10-31T15:06:40;21.90;;;12.98;;
1294;SDS011;640;48.310;11.728;2022-10-31T15:09:22;21.67;;;13.27;;
1294;SDS011;640;48.310;11.728;2022-10-31T15:11:52;18.88;;;13.00;;
1294;SDS011;640;48.310;11.728;2022-10-31T15:14:22;23.70;;;13.65;;
1294;SDS011;640;48.310;11.728;2022-10-31T15:16:53;19.42;;;12.98;;
1294;SDS011;640;48.310;11.728;2022-10-31T15:21:51;22.05;;;13.52;;
1294;SDS011;640;48.310;11.728;2022-10-31T15:24:22;21.55;;;13.65;;
1294;SDS011;640;48.310;11.728;2022-10-31T15:26:52;20.92;;;13.63;;
1294;SDS011;640;48.310;11.728;2022-10-31T15:29:24;20.65;;;13.93;;
1294;SDS011;640;48.310;11.728;2022-10-31T15:31:56;24.23;;;13.80;;
1294;SDS011;640;48.310;11.728;2022-10-31T15:34:26;21.05;;;13.50;;
1294;SDS011;640;48.310;11.728;2022-10-31T15:36:58;25.95;;;15.02;;
1294;SDS011;640;48.310;11.728;2022-10-31T15:39:26;21.67;;;13.65;;
1294;SDS011;640;48.310;11.728;2022-10-31T15:41:55;20.90;;;14.20;;
1294;SDS011;640;48.310;11.728;2022-10-31T15:44:26;19.75;;;13.57;;
1294;SDS011;640;48.310;11.728;2022-10-31T15:49:28;23.85;;;13.80;;
1294;SDS011;640;48.310;11.728;2022-10-31T15:52:02;21.63;;;14.80;;
1294;SDS011;640;48.310;11.728;2022-10-31T15:54:33;21.13;;;14.13;;
1294;SDS011;640;48.310;11.728;2022-10-31T15:57:01;27.15;;;15.02;;
1294;SDS011;640;48.310;11.728;2022-10-31T15:59:30;26.95;;;15.23;;
1294;SDS011;640;48.310;11.728;2022-10-31T16:02:01;24.10;;;15.50;;
1294;SDS011;640;48.310;11.728;2022-10-31T16:04:30;23.55;;;14.80;;
1294;SDS011;640;48.310;11.728;2022-10-31T16:06:59;25.13;;;15.15;;
1294;SDS011;640;48.310;11.728;2022-10-31T16:11:57;18.88;;;14.05;;
1294;SDS011;640;48.310;11.728;2022-10-31T16:14:27;23.45;;;16.88;;
1294;SDS011;640;48.310;11.728;2022-10-31T16:16:56;22.40;;;15.90;;